Time;durP1;ratioP1;P1;durP2;ratioP2;P2;SDS_P1;SDS_P2;PMS_P1;PMS_P2;Temp;Humidity;BMP_temperature;BMP_pressure;BME280_temperature;BME280_humidity;BME280_pressure;Samples;Min_cycle;Max_cycle;Signal;HPM_P1;HPM_P2
2022/03/15 00:01:20;;;;;;;15.13;7.97;;;7.20;99.90;;;;;;5014262;28;20218;-60
2022/03/15 00:03:48;;;;;;;8.20;5.37;;;7.40;99.90;;;;;;5013983;28;20207;-60
2022/03/15 00:06:15;;;;;;;8.87;5.33;;;7.40;99.90;;;;;;5013848;28;20332;-60
2022/03/15 00:08:44;;;;;;;12.90;5.60;;;7.40;99.90;;;;;;5014172;28;20630;-60
2022/03/15 00:11:10;;;;;;;8.50;5.10;;;7.40;99.90;;;;;;5014050;28;20587;-60
2022/03/15 00:13:39;;;;;;;10.63;5.30;;;7.50;99.90;;;;;;5014313;28;20277;-60
2022/03/15 00:16:07;;;;;;;129.97;82.00;;;7.50;99.90;;;;;;5014154;28;20254;-60
2022/03/15 00:18:35;;;;;;;8.33;5.53;;;7.40;99.90;;;;;;5013922;28;20230;-60
2022/03/15 00:21:04;;;;;;;9.43;5.33;;;7.30;99.90;;;;;;5014068;28;20277;-60
2022/03/15 00:23:31;;;;;;;8.50;4.90;;;7.30;99.90;;;;;;5013687;28;20298;-60
2022/03/15 00:25:59;;;;;;;8.03;4.90;;;7.40;99.90;;;;;;5013364;28;20273;-59
2022/03/15 00:28:26;;;;;;;7.20;4.47;;;7.50;99.90;;;;;;5013268;28;20210;-60
2022/03/15 00:30:53;;;;;;;7.57;5.00;;;7.60;99.90;;;;;;5013254;28;20202;-60
2022/03/15 00:33:20;;;;;;;8.97;5.10;;;7.80;99.90;;;;;;5013459;28;20289;-60
2022/03/15 00:35:48;;;;;;;8.07;4.77;;;7.80;99.90;;;;;;5013315;28;20758;-60
2022/03/15 00:38:15;;;;;;;7.87;5.20;;;7.90;99.90;;;;;;5013314;28;20281;-60
2022/03/15 00:40:42;;;;;;;8.47;5.20;;;8.00;99.90;;;;;;5012906;28;20313;-60
2022/03/15 00:43:08;;;;;;;14.00;5.17;;;8.00;99.90;;;;;;5013328;28;20294;-60
2022/03/15 00:45:35;;;;;;;8.80;5.10;;;7.80;99.90;;;;;;5013100;28;20203;-60
2022/03/15 00:48:02;;;;;;;6.37;4.40;;;7.60;99.90;;;;;;5013177;28;20215;-60
2022/03/15 00:50:29;;;;;;;8.53;4.50;;;7.60;99.90;;;;;;5012841;28;20210;-60
2022/03/15 00:52:59;;;;;;;6.67;4.40;;;7.50;99.90;;;;;;5012888;28;20206;-60
2022/03/15 00:55:25;;;;;;;6.47;4.60;;;7.60;99.90;;;;;;5012726;28;20207;-60
2022/03/15 00:57:52;;;;;;;9.27;4.33;;;7.60;99.90;;;;;;5012916;28;20234;-60
2022/03/15 01:00:20;;;;;;;9.10;5.00;;;7.50;99.90;;;;;;5012586;28;20269;-59
2022/03/15 01:02:48;;;;;;;7.63;4.30;;;7.50;99.90;;;;;;5012786;28;20626;-60
2022/03/15 01:05:14;;;;;;;9.93;4.77;;;7.50;99.90;;;;;;5012712;28;20211;-60
2022/03/15 01:07:41;;;;;;;9.83;4.97;;;7.50;99.90;;;;;;5012654;28;20234;-60
2022/03/15 01:10:10;;;;;;;7.57;4.53;;;7.40;99.90;;;;;;5012536;28;20301;-60
2022/03/15 01:12:36;;;;;;;9.30;4.57;;;7.30;99.90;;;;;;5012571;28;20584;-60
2022/03/15 01:15:03;;;;;;;10.00;4.50;;;7.20;99.90;;;;;;5012446;28;20741;-60
2022/03/15 01:17:30;;;;;;;8.47;4.90;;;7.30;99.90;;;;;;5012469;28;20285;-60
2022/03/15 01:19:57;;;;;;;7.37;4.60;;;7.40;99.90;;;;;;5012318;28;20210;-60
2022/03/15 01:22:24;;;;;;;10.60;4.23;;;7.40;99.90;;;;;;5012350;28;20211;-60
2022/03/15 01:24:51;;;;;;;6.40;3.90;;;7.50;99.90;;;;;;5012610;28;20206;-60
2022/03/15 01:27:20;;;;;;;6.73;3.67;;;7.40;99.90;;;;;;5012443;28;20230;-60
2022/03/15 01:29:47;;;;;;;6.93;4.10;;;7.40;99.90;;;;;;5012344;28;20214;-60
2022/03/15 01:32:16;;;;;;;8.40;4.27;;;7.40;99.90;;;;;;5012413;28;20206;-60
2022/03/15 01:34:42;;;;;;;5.07;3.73;;;7.40;99.90;;;;;;5012491;28;20238;-60
2022/03/15 01:37:09;;;;;;;9.23;4.73;;;7.50;99.90;;;;;;5047177;22;20226;-58
2022/03/15 01:39:37;;;;;;;9.03;4.33;;;7.50;99.90;;;;;;5031803;28;20291;-58
2022/03/15 01:42:04;;;;;;;5.90;4.27;;;7.60;99.90;;;;;;5032081;28;20217;-58
2022/03/15 01:44:33;;;;;;;6.77;3.87;;;7.70;99.90;;;;;;5032094;28;20206;-58
2022/03/15 01:47:00;;;;;;;6.20;3.33;;;7.80;99.90;;;;;;5031898;28;20315;-58
2022/03/15 01:49:27;;;;;;;5.43;3.67;;;7.80;99.90;;;;;;5031638;28;20212;-58
2022/03/15 01:51:53;;;;;;;5.27;3.83;;;7.80;99.90;;;;;;5032124;28;20214;-58
2022/03/15 01:54:21;;;;;;;6.33;4.10;;;7.80;99.90;;;;;;5031981;28;20206;-58
2022/03/15 01:56:48;;;;;;;5.77;3.87;;;7.80;99.90;;;;;;5032016;28;20604;-58
2022/03/15 01:59:16;;;;;;;5.83;4.10;;;7.60;99.90;;;;;;5031608;28;20728;-58
2022/03/15 02:01:46;;;;;;;8.60;3.90;;;7.40;99.90;;;;;;5031602;28;20625;-58
2022/03/15 02:04:15;;;;;;;10.23;4.07;;;7.30;99.90;;;;;;5032715;28;20252;-58
2022/03/15 02:06:42;;;;;;;6.93;3.90;;;7.20;99.90;;;;;;5035943;28;20404;-58
2022/03/15 02:09:09;;;;;;;7.37;4.33;;;7.20;99.90;;;;;;5035785;28;20672;-58
2022/03/15 02:11:36;;;;;;;7.73;3.70;;;7.10;99.90;;;;;;5035864;28;20208;-58
2022/03/15 02:14:03;;;;;;;9.23;3.73;;;7.20;99.90;;;;;;5036367;28;20210;-57
2022/03/15 02:16:30;;;;;;;7.70;3.97;;;7.30;99.90;;;;;;5036140;28;20316;-58
2022/03/15 02:19:00;;;;;;;5.53;3.63;;;7.30;99.90;;;;;;5035581;28;20237;-59
2022/03/15 02:21:29;;;;;;;7.23;3.80;;;7.30;99.90;;;;;;5035775;28;20206;-59
2022/03/15 02:23:56;;;;;;;6.10;3.93;;;7.40;99.90;;;;;;5036089;28;20237;-59
2022/03/15 02:26:23;;;;;;;5.87;3.90;;;7.50;99.90;;;;;;5035551;28;20307;-58
2022/03/15 02:28:50;;;;;;;8.17;3.47;;;7.50;99.90;;;;;;5035539;28;20206;-59
2022/03/15 02:31:16;;;;;;;8.10;4.13;;;7.40;99.90;;;;;;5035109;28;20214;-58
2022/03/15 02:33:43;;;;;;;7.07;3.90;;;7.40;99.90;;;;;;5035516;28;20609;-59
2022/03/15 02:36:10;;;;;;;5.07;3.60;;;7.40;99.90;;;;;;5035317;28;20242;-59
2022/03/15 02:38:38;;;;;;;6.67;3.90;;;7.30;99.90;;;;;;5035373;28;20319;-57
2022/03/15 02:41:06;;;;;;;10.07;5.33;;;7.30;99.90;;;;;;5035124;28;20214;-59
2022/03/15 02:43:33;;;;;;;11.83;6.00;;;7.30;99.90;;;;;;5035182;28;20289;-58
2022/03/15 02:45:59;;;;;;;17.03;8.90;;;7.30;99.90;;;;;;5035506;28;20206;-59
2022/03/15 02:48:26;;;;;;;9.27;5.80;;;7.30;99.90;;;;;;5035195;28;20199;-58
2022/03/15 02:50:53;;;;;;;7.13;5.10;;;7.30;99.90;;;;;;5034744;28;20206;-58
2022/03/15 02:53:20;;;;;;;7.77;5.20;;;7.40;99.90;;;;;;5035107;28;20206;-58
2022/03/15 02:55:48;;;;;;;6.03;4.53;;;7.50;99.90;;;;;;5034990;28;20213;-58
2022/03/15 02:58:15;;;;;;;5.93;4.20;;;7.50;99.90;;;;;;5034811;28;20245;-57
2022/03/15 03:00:42;;;;;;;7.30;4.00;;;7.50;99.90;;;;;;5034926;28;20216;-58
2022/03/15 03:03:08;;;;;;;8.57;3.77;;;7.50;99.90;;;;;;5035065;28;20297;-58
2022/03/15 03:05:35;;;;;;;4.87;3.50;;;7.50;99.90;;;;;;5034976;28;20241;-58
2022/03/15 03:08:04;;;;;;;5.47;3.97;;;7.50;99.90;;;;;;5034736;28;20249;-59
2022/03/15 03:10:31;;;;;;;5.73;3.50;;;7.60;99.90;;;;;;5034711;28;20210;-57
2022/03/15 03:13:00;;;;;;;6.57;4.07;;;7.70;99.90;;;;;;5034764;28;20221;-59
2022/03/15 03:15:27;;;;;;;8.20;4.20;;;7.80;99.90;;;;;;5034842;28;20206;-59
2022/03/15 03:17:54;;;;;;;7.03;3.77;;;7.90;99.90;;;;;;5034564;28;20230;-59
2022/03/15 03:20:22;;;;;;;7.23;4.10;;;7.90;99.90;;;;;;5034347;28;20209;-58
2022/03/15 03:22:50;;;;;;;4.27;3.10;;;7.90;99.90;;;;;;5034390;28;20264;-59
2022/03/15 03:25:18;;;;;;;6.03;3.43;;;7.90;99.90;;;;;;5034702;28;20690;-59
2022/03/15 03:27:46;;;;;;;7.27;3.87;;;7.90;99.90;;;;;;5034314;28;20317;-59
2022/03/15 03:30:15;;;;;;;4.80;3.27;;;7.90;99.90;;;;;;5034441;28;20234;-59
2022/03/15 03:32:42;;;;;;;8.17;4.90;;;7.90;99.90;;;;;;5034499;28;20221;-58
2022/03/15 03:35:09;;;;;;;7.47;4.07;;;7.90;99.90;;;;;;5034144;28;20743;-58
2022/03/15 03:37:36;;;;;;;7.07;3.93;;;7.70;99.90;;;;;;5034364;28;20305;-58
2022/03/15 03:40:07;;;;;;;7.23;3.93;;;7.60;99.90;;;;;;5034057;28;20222;-59
2022/03/15 03:42:34;;;;;;;6.70;4.00;;;7.60;99.90;;;;;;5034488;28;20206;-59
2022/03/15 03:45:01;;;;;;;5.93;3.70;;;7.50;99.90;;;;;;5034150;28;20202;-59
2022/03/15 03:47:29;;;;;;;6.00;3.30;;;7.40;99.90;;;;;;5033836;28;20596;-57
2022/03/15 03:49:55;;;;;;;5.30;3.67;;;7.30;99.90;;;;;;5034035;28;20606;-58
2022/03/15 03:52:22;;;;;;;5.27;4.03;;;7.20;99.90;;;;;;5034010;28;20570;-58
2022/03/15 03:54:49;;;;;;;9.40;3.83;;;7.20;99.90;;;;;;5033924;28;20685;-59
2022/03/15 03:57:16;;;;;;;4.93;3.27;;;7.30;99.90;;;;;;5034081;28;20225;-58
2022/03/15 03:59:42;;;;;;;6.10;3.60;;;7.40;99.90;;;;;;5033927;28;20230;-58
2022/03/15 04:02:09;;;;;;;6.60;3.83;;;7.40;99.90;;;;;;5034006;28;20650;-59
2022/03/15 04:04:37;;;;;;;6.37;3.30;;;7.50;99.90;;;;;;5033890;28;20260;-58
2022/03/15 04:07:10;;;;;;;7.67;4.27;;;7.40;99.90;;;;;;5033745;28;20313;-58
2022/03/15 04:09:36;;;;;;;9.30;3.23;;;7.40;99.90;;;;;;5033482;28;20659;-58
2022/03/15 04:12:06;;;;;;;8.20;3.93;;;7.30;99.90;;;;;;5033752;28;20202;-57
2022/03/15 04:14:34;;;;;;;6.63;3.90;;;7.30;99.90;;;;;;5033479;28;20616;-58
2022/03/15 04:17:01;;;;;;;5.83;3.70;;;7.30;99.90;;;;;;5033516;28;20714;-58
2022/03/15 04:19:27;;;;;;;6.10;2.93;;;7.40;99.90;;;;;;5033917;28;20266;-59
2022/03/15 04:21:56;;;;;;;3.93;2.90;;;7.40;99.90;;;;;;5033909;28;20210;-58
2022/03/15 04:24:22;;;;;;;6.97;3.30;;;7.40;99.90;;;;;;5033776;28;20210;-59
2022/03/15 04:26:49;;;;;;;5.07;3.07;;;7.40;99.90;;;;;;5032776;28;20288;-58
2022/03/15 04:29:16;;;;;;;4.63;3.00;;;7.40;99.90;;;;;;5033431;28;20202;-61
2022/03/15 04:31:42;;;;;;;4.07;2.90;;;7.40;99.90;;;;;;5032950;28;20206;-57
2022/03/15 04:34:09;;;;;;;5.27;3.13;;;7.20;99.90;;;;;;5033368;28;20610;-58
2022/03/15 04:36:36;;;;;;;4.10;2.93;;;7.20;99.90;;;;;;5032969;28;20325;-59
2022/03/15 04:39:04;;;;;;;5.63;3.23;;;7.20;99.90;;;;;;5033299;28;20233;-58
2022/03/15 04:41:31;;;;;;;7.90;3.63;;;7.20;99.90;;;;;;5032770;28;20213;-58
2022/03/15 04:43:58;;;;;;;9.83;5.07;;;7.20;99.90;;;;;;5033001;28;20229;-58
2022/03/15 04:46:25;;;;;;;6.20;3.27;;;7.30;99.90;;;;;;5033153;28;20280;-59
2022/03/15 04:48:53;;;;;;;4.60;3.23;;;7.40;99.90;;;;;;5032814;28;20198;-58
2022/03/15 04:51:20;;;;;;;5.53;2.80;;;7.40;99.90;;;;;;5032864;28;20301;-59
2022/03/15 04:53:47;;;;;;;5.80;3.10;;;7.40;99.90;;;;;;5033089;28;20206;-58
2022/03/15 04:56:15;;;;;;;5.10;3.03;;;7.30;99.90;;;;;;5032743;28;20283;-59
2022/03/15 04:58:42;;;;;;;6.03;3.77;;;7.30;99.90;;;;;;5032634;28;20207;-58
2022/03/15 05:01:09;;;;;;;6.47;3.57;;;7.30;99.90;;;;;;5032303;28;20259;-59
2022/03/15 05:03:36;;;;;;;5.97;3.00;;;7.40;99.90;;;;;;5032760;28;20214;-58
2022/03/15 05:06:03;;;;;;;4.03;2.57;;;7.40;99.90;;;;;;5032875;28;20210;-59
2022/03/15 05:08:30;;;;;;;6.90;2.90;;;7.50;99.90;;;;;;5032981;28;20210;-57
2022/03/15 05:13:47;;;;;;;7.10;3.20;;;7.30;99.90;;;;;;5028684;28;20672;-58
2022/03/15 05:16:17;;;;;;;5.53;3.10;;;7.30;99.90;;;;;;5032450;28;20226;-57
2022/03/15 05:18:44;;;;;;;6.27;2.97;;;7.30;99.90;;;;;;5032443;28;20233;-57
2022/03/15 05:21:12;;;;;;;6.87;2.83;;;7.30;99.90;;;;;;5032040;28;20210;-57
2022/03/15 05:23:39;;;;;;;7.73;2.80;;;7.30;99.90;;;;;;5032280;28;20217;-58
2022/03/15 05:26:06;;;;;;;8.00;2.73;;;7.20;99.90;;;;;;5032068;28;20222;-58
2022/03/15 05:28:33;;;;;;;4.90;2.60;;;7.30;99.90;;;;;;5032529;28;20206;-57
2022/03/15 05:31:01;;;;;;;5.43;3.00;;;7.30;99.90;;;;;;5031937;28;20630;-57
2022/03/15 05:33:28;;;;;;;6.93;2.87;;;7.30;99.90;;;;;;5032270;28;20256;-59
2022/03/15 05:35:55;;;;;;;7.60;2.90;;;7.30;99.90;;;;;;5032301;28;20206;-57
2022/03/15 05:38:22;;;;;;;5.93;2.90;;;7.20;99.90;;;;;;5031976;28;20670;-58
2022/03/15 05:40:49;;;;;;;5.53;2.43;;;7.10;99.90;;;;;;5032182;28;20276;-57
2022/03/15 05:43:15;;;;;;;4.60;2.83;;;7.10;99.90;;;;;;5032273;28;20218;-57
2022/03/15 05:45:43;;;;;;;4.97;3.10;;;7.20;99.90;;;;;;5032093;28;20213;-58
2022/03/15 05:48:11;;;;;;;5.60;2.80;;;7.20;99.90;;;;;;5031943;28;20312;-57
2022/03/15 05:50:37;;;;;;;6.63;3.00;;;7.30;99.90;;;;;;5031688;28;20249;-57
2022/03/15 05:53:04;;;;;;;4.80;2.53;;;7.40;99.90;;;;;;5031986;28;20202;-58
2022/03/15 05:55:32;;;;;;;8.43;2.63;;;7.50;99.90;;;;;;5031827;28;20257;-57
2022/03/15 05:57:58;;;;;;;7.27;3.20;;;7.50;99.90;;;;;;5032014;28;20321;-56
2022/03/15 06:00:26;;;;;;;8.37;4.70;;;7.60;99.90;;;;;;5031353;28;20706;-57
2022/03/15 06:02:52;;;;;;;7.77;4.70;;;7.70;99.90;;;;;;5031764;28;20621;-57
2022/03/15 06:05:21;;;;;;;7.40;4.00;;;7.80;99.90;;;;;;5031687;28;20210;-57
2022/03/15 06:07:49;;;;;;;9.70;3.77;;;7.90;99.90;;;;;;5031389;28;20280;-57
2022/03/15 06:10:17;;;;;;;5.37;3.70;;;7.90;99.90;;;;;;5031528;28;20459;-57
2022/03/15 06:12:45;;;;;;;6.60;3.60;;;8.00;99.90;;;;;;5031727;28;20458;-57
2022/03/15 06:15:12;;;;;;;7.63;3.50;;;8.00;99.90;;;;;;5031732;28;20214;-57
2022/03/15 06:17:46;;;;;;;5.90;3.10;;;8.10;99.90;;;;;;5031623;28;20226;-58
2022/03/15 06:20:16;;;;;;;7.37;3.43;;;8.20;99.90;;;;;;5031160;28;20224;-57
2022/03/15 06:22:44;;;;;;;7.67;3.27;;;8.20;99.90;;;;;;5031686;28;20304;-58
2022/03/15 06:25:11;;;;;;;7.00;3.10;;;8.30;99.90;;;;;;5031609;28;20218;-58
2022/03/15 06:27:38;;;;;;;6.57;3.50;;;8.40;99.90;;;;;;5031527;28;20226;-57
2022/03/15 06:30:07;;;;;;;6.87;3.17;;;8.50;99.90;;;;;;5032533;28;20256;-59
2022/03/15 06:32:33;;;;;;;5.43;2.90;;;8.50;99.90;;;;;;5031844;28;20207;-58
2022/03/15 06:35:06;;;;;;;9.23;3.63;;;8.60;99.90;;;;;;5031627;28;20210;-58
2022/03/15 06:37:34;;;;;;;6.00;3.40;;;8.70;99.90;;;;;;5031233;28;20269;-59
2022/03/15 06:40:03;;;;;;;8.53;3.83;;;8.80;99.90;;;;;;5031232;28;20245;-58
2022/03/15 06:42:31;;;;;;;6.83;3.03;;;8.90;99.90;;;;;;5031503;28;20218;-57
2022/03/15 06:44:58;;;;;;;8.23;3.20;;;8.90;99.90;;;;;;5031109;28;20709;-58
2022/03/15 06:47:24;;;;;;;8.07;3.40;;;9.10;99.90;;;;;;5031220;28;20610;-57
2022/03/15 06:49:51;;;;;;;7.00;3.33;;;9.10;99.90;;;;;;5031493;28;20217;-59
2022/03/15 06:52:18;;;;;;;5.73;2.87;;;9.20;99.90;;;;;;5035233;28;20210;-58
2022/03/15 06:54:45;;;;;;;8.20;3.27;;;9.40;99.90;;;;;;5035276;28;20209;-57
2022/03/15 06:57:14;;;;;;;4.90;2.93;;;9.40;99.90;;;;;;5034798;28;20253;-59
2022/03/15 06:59:41;;;;;;;6.17;2.93;;;9.60;99.90;;;;;;5034957;28;20225;-58
2022/03/15 07:02:07;;;;;;;5.27;3.10;;;9.80;99.90;;;;;;5034637;28;20206;-57
2022/03/15 07:04:34;;;;;;;6.57;3.10;;;10.10;99.90;;;;;;5035123;28;20210;-57
2022/03/15 07:07:01;;;;;;;6.20;3.70;;;10.30;99.90;;;;;;5034934;28;20233;-57
2022/03/15 07:09:27;;;;;;;7.40;3.53;;;10.50;99.90;;;;;;5034692;28;20734;-57
2022/03/15 07:11:54;;;;;;;5.93;3.30;;;10.60;99.90;;;;;;5034521;28;20210;-57
2022/03/15 07:14:22;;;;;;;7.23;3.30;;;10.50;99.90;;;;;;5034740;28;20221;-57
2022/03/15 07:16:49;;;;;;;6.33;3.17;;;10.60;99.90;;;;;;5034418;28;20219;-58
2022/03/15 07:19:15;;;;;;;6.60;3.50;;;10.50;99.90;;;;;;5034666;28;20214;-57
2022/03/15 07:21:42;;;;;;;8.43;3.50;;;10.50;99.90;;;;;;5034404;28;20210;-58
2022/03/15 07:24:09;;;;;;;5.40;3.53;;;10.50;99.90;;;;;;5034618;28;20211;-57
2022/03/15 07:26:35;;;;;;;8.43;3.70;;;10.50;99.90;;;;;;5034451;28;20252;-58
2022/03/15 07:29:02;;;;;;;6.57;3.43;;;10.60;99.90;;;;;;5034375;28;20301;-58
2022/03/15 07:31:30;;;;;;;6.53;3.33;;;10.60;99.90;;;;;;5034166;28;20206;-58
2022/03/15 07:33:57;;;;;;;9.57;3.43;;;10.60;99.90;;;;;;5034548;28;20210;-58
2022/03/15 07:36:24;;;;;;;10.90;4.23;;;10.50;99.90;;;;;;5034716;28;20225;-58
2022/03/15 07:38:50;;;;;;;6.40;3.57;;;10.50;99.90;;;;;;5034398;28;20593;-58
2022/03/15 07:41:21;;;;;;;9.40;4.37;;;10.40;99.90;;;;;;5034007;28;20234;-57
2022/03/15 07:43:48;;;;;;;5.87;4.03;;;10.40;99.90;;;;;;5034126;28;20208;-58
2022/03/15 07:46:15;;;;;;;7.23;3.63;;;10.50;99.90;;;;;;5034152;28;20276;-59
2022/03/15 07:48:43;;;;;;;6.63;3.77;;;10.50;99.90;;;;;;5034259;28;20206;-58
2022/03/15 07:51:10;;;;;;;5.67;3.63;;;10.50;99.90;;;;;;5033823;28;20208;-57
2022/03/15 07:53:37;;;;;;;9.30;4.47;;;10.50;99.90;;;;;;5033927;28;20213;-58
2022/03/15 07:56:04;;;;;;;7.73;4.17;;;10.40;99.90;;;;;;5033794;28;20206;-58
2022/03/15 07:58:31;;;;;;;6.53;3.80;;;10.40;99.90;;;;;;5033752;28;20635;-57
2022/03/15 08:00:58;;;;;;;6.80;3.67;;;10.30;99.90;;;;;;5033459;28;20226;-58
2022/03/15 08:03:26;;;;;;;7.97;3.70;;;10.30;99.90;;;;;;5033313;28;20210;-58
2022/03/15 08:05:54;;;;;;;7.25;4.10;;;10.30;99.90;;;;;;5032441;28;20869;-65
2022/03/15 08:08:20;;;;;;;8.93;4.00;;;10.40;99.90;;;;;;5033787;28;20210;-54
2022/03/15 08:10:47;;;;;;;6.33;3.50;;;10.60;99.90;;;;;;5033404;28;20198;-55
2022/03/15 08:13:14;;;;;;;7.13;3.47;;;10.90;99.90;;;;;;5033548;28;20611;-55
2022/03/15 08:15:40;;;;;;;8.87;4.37;;;11.30;99.90;;;;;;5033665;28;20210;-55
2022/03/15 08:18:07;;;;;;;9.57;5.90;;;11.70;99.90;;;;;;5033469;28;20234;-57
2022/03/15 08:20:35;;;;;;;10.90;5.00;;;12.00;99.90;;;;;;5033344;28;20218;-66
2022/03/15 08:23:03;;;;;;;6.73;4.00;;;12.30;99.90;;;;;;5033307;28;20206;-66
2022/03/15 08:25:30;;;;;;;9.23;4.37;;;12.50;99.90;;;;;;5033539;28;20582;-57
2022/03/15 08:27:58;;;;;;;11.93;4.00;;;12.80;99.70;;;;;;5033486;28;20674;-56
2022/03/15 08:30:25;;;;;;;9.07;4.67;;;12.90;99.10;;;;;;5032886;28;20734;-55
2022/03/15 08:32:52;;;;;;;8.07;4.20;;;13.10;98.80;;;;;;5033206;28;20214;-58
2022/03/15 08:35:19;;;;;;;8.83;4.53;;;13.20;98.50;;;;;;5033173;28;20208;-57
2022/03/15 08:37:50;;;;;;;8.33;4.50;;;13.20;98.00;;;;;;5033057;28;20281;-57
2022/03/15 08:40:18;;;;;;;6.60;4.40;;;13.30;97.80;;;;;;5032976;28;20210;-57
2022/03/15 08:42:45;;;;;;;7.93;3.80;;;13.40;97.80;;;;;;5033037;28;20292;-57
2022/03/15 08:45:11;;;;;;;9.90;4.27;;;13.60;97.60;;;;;;5033118;28;20210;-57
2022/03/15 08:47:38;;;;;;;10.97;4.23;;;13.70;97.00;;;;;;5032980;28;20226;-58
2022/03/15 08:50:07;;;;;;;7.57;3.03;;;14.00;96.60;;;;;;5032655;28;20206;-57
2022/03/15 08:52:34;;;;;;;5.90;2.90;;;14.20;95.80;;;;;;5032891;28;20213;-57
2022/03/15 08:55:02;;;;;;;7.07;3.03;;;14.50;95.30;;;;;;5033000;28;20307;-57
2022/03/15 08:57:30;;;;;;;5.53;2.43;;;14.70;94.70;;;;;;5032797;28;20226;-58
2022/03/15 08:59:58;;;;;;;7.03;3.00;;;14.90;93.90;;;;;;5032520;28;20202;-58
2022/03/15 09:02:24;;;;;;;6.50;2.63;;;15.10;93.50;;;;;;5032745;28;20689;-58
2022/03/15 09:04:51;;;;;;;6.37;2.87;;;15.10;93.40;;;;;;5032813;28;20210;-57
2022/03/15 09:07:18;;;;;;;7.47;2.90;;;15.30;93.00;;;;;;5032803;28;20226;-57
2022/03/15 09:09:44;;;;;;;8.37;3.60;;;15.50;92.80;;;;;;5032674;28;20264;-58
2022/03/15 09:12:11;;;;;;;7.37;3.17;;;15.70;92.50;;;;;;5032410;28;20256;-58
2022/03/15 09:14:39;;;;;;;7.57;3.10;;;15.90;92.30;;;;;;5032480;28;20241;-57
2022/03/15 09:17:06;;;;;;;5.67;3.20;;;16.10;91.80;;;;;;5032549;28;20648;-55
2022/03/15 09:19:33;;;;;;;9.60;3.53;;;16.00;91.80;;;;;;5032523;28;20301;-57
2022/03/15 09:22:02;;;;;;;11.10;3.30;;;15.90;92.00;;;;;;5032658;28;20222;-55
2022/03/15 09:24:30;;;;;;;6.33;2.83;;;16.00;91.90;;;;;;5032805;28;20210;-58
2022/03/15 09:26:56;;;;;;;7.33;2.93;;;16.10;91.50;;;;;;5032299;28;20648;-57
2022/03/15 09:29:24;;;;;;;4.67;2.70;;;16.10;91.80;;;;;;5032553;28;20268;-58
2022/03/15 09:31:52;;;;;;;3.70;2.47;;;16.00;91.90;;;;;;5032028;28;20313;-57
2022/03/15 09:34:22;;;;;;;6.70;2.97;;;15.90;92.00;;;;;;5032028;28;20607;-57
2022/03/15 09:36:50;;;;;;;7.00;3.30;;;15.90;92.00;;;;;;5032230;28;20245;-56
2022/03/15 09:39:18;;;;;;;8.07;3.30;;;15.80;91.80;;;;;;5032486;28;20264;-56
2022/03/15 09:41:48;;;;;;;9.67;2.97;;;15.80;91.90;;;;;;5031788;28;20230;-55
2022/03/15 09:44:17;;;;;;;4.70;3.07;;;15.50;92.20;;;;;;5031973;28;20293;-56
2022/03/15 09:46:50;;;;;;;4.77;2.93;;;15.10;92.90;;;;;;5031777;28;20230;-57
2022/03/15 09:49:19;;;;;;;6.27;3.10;;;15.40;92.90;;;;;;5032273;28;20256;-56
2022/03/15 09:51:46;;;;;;;5.87;2.70;;;15.60;92.70;;;;;;5032055;28;20424;-56
2022/03/15 09:54:13;;;;;;;6.73;3.50;;;15.60;92.50;;;;;;5032811;28;20256;-57
2022/03/15 09:56:40;;;;;;;5.37;3.00;;;15.60;92.40;;;;;;5033073;28;20234;-56
2022/03/15 09:59:12;;;;;;;5.90;3.10;;;15.60;92.60;;;;;;5032033;28;20213;-56
2022/03/15 10:01:40;;;;;;;5.40;2.90;;;15.80;92.70;;;;;;5031780;28;20321;-57
2022/03/15 10:04:07;;;;;;;4.03;2.70;;;16.00;92.40;;;;;;5032149;28;20297;-56
2022/03/15 10:06:36;;;;;;;5.27;3.03;;;16.20;92.30;;;;;;5031766;28;20256;-56
2022/03/15 10:09:03;;;;;;;5.97;2.30;;;16.30;92.20;;;;;;5031867;28;20237;-56
2022/03/15 10:11:30;;;;;;;4.53;2.40;;;16.30;92.10;;;;;;5031572;28;20202;-58
2022/03/15 10:13:57;;;;;;;5.90;2.57;;;16.20;92.30;;;;;;5031682;28;20268;-56
2022/03/15 10:16:30;;;;;;;5.87;2.40;;;16.00;92.70;;;;;;5031683;28;20293;-56
2022/03/15 10:18:58;;;;;;;4.83;2.30;;;16.00;93.00;;;;;;5031856;28;20214;-56
2022/03/15 10:21:26;;;;;;;4.60;2.10;;;16.00;93.10;;;;;;5031375;28;20222;-56
2022/03/15 10:23:54;;;;;;;5.73;2.57;;;16.00;93.10;;;;;;5031735;28;20679;-57
2022/03/15 10:26:25;;;;;;;3.57;1.97;;;16.00;93.20;;;;;;5034587;28;20596;-57
2022/03/15 10:28:53;;;;;;;4.87;2.23;;;16.10;93.60;;;;;;5035410;28;20202;-56
2022/03/15 10:31:22;;;;;;;2.73;2.10;;;16.10;93.30;;;;;;5035339;28;20689;-57
2022/03/15 10:33:50;;;;;;;2.97;2.13;;;16.10;93.30;;;;;;5035966;28;20288;-56
2022/03/15 10:36:18;;;;;;;3.80;2.40;;;16.00;93.40;;;;;;5036066;28;20238;-58
2022/03/15 10:38:46;;;;;;;3.53;2.03;;;15.90;93.70;;;;;;5036025;28;20701;-58
2022/03/15 10:41:16;;;;;;;4.50;2.70;;;15.90;94.10;;;;;;5035411;28;20721;-58
2022/03/15 10:43:43;;;;;;;4.30;3.00;;;16.10;94.40;;;;;;5035648;28;20264;-56
2022/03/15 10:46:12;;;;;;;6.37;2.70;;;16.10;94.40;;;;;;5035469;28;20229;-57
2022/03/15 10:48:40;;;;;;;3.57;2.40;;;16.20;94.30;;;;;;5035451;28;20206;-57
2022/03/15 10:51:09;;;;;;;6.23;2.80;;;16.30;94.40;;;;;;5035278;28;20302;-56
2022/03/15 10:53:41;;;;;;;19.23;12.93;;;16.20;93.10;;;;;;5035400;28;20300;-57
2022/03/15 10:56:13;;;;;;;6.90;3.10;;;16.10;93.50;;;;;;5035295;28;20226;-57
2022/03/15 10:58:49;;;;;;;40.20;34.90;;;16.30;93.20;;;;;;5035438;28;20232;-56
2022/03/15 11:01:19;;;;;;;9.27;5.30;;;16.40;93.60;;;;;;5035018;28;20222;-56
2022/03/15 11:04:00;;;;;;;9.27;3.97;;;16.50;94.10;;;;;;5034984;28;20206;-57
2022/03/15 11:06:31;;;;;;;6.47;2.97;;;16.70;94.20;;;;;;5034938;28;20636;-56
2022/03/15 11:08:59;;;;;;;6.63;3.03;;;16.80;93.80;;;;;;5034952;28;20209;-57
2022/03/15 11:11:27;;;;;;;4.57;2.60;;;16.70;94.40;;;;;;5034444;28;20210;-56
2022/03/15 11:14:02;;;;;;;5.03;2.83;;;16.70;94.40;;;;;;5034646;28;20214;-57
2022/03/15 11:16:32;;;;;;;3.77;2.50;;;16.50;95.00;;;;;;5034339;28;20230;-55
2022/03/15 11:19:00;;;;;;;4.13;2.37;;;16.30;95.80;;;;;;5034632;28;20234;-56
2022/03/15 11:21:28;;;;;;;4.50;2.60;;;16.20;96.10;;;;;;5034295;28;20226;-56
2022/03/15 11:24:00;;;;;;;5.23;2.53;;;16.20;96.40;;;;;;5034625;28;20211;-55
2022/03/15 11:26:29;;;;;;;6.33;2.80;;;16.10;96.50;;;;;;5034374;28;20226;-56
2022/03/15 11:28:57;;;;;;;5.20;3.30;;;16.10;96.30;;;;;;5034706;28;20221;-57
2022/03/15 11:31:25;;;;;;;5.80;2.70;;;16.00;96.20;;;;;;5034082;28;20207;-58
2022/03/15 11:33:54;;;;;;;4.13;2.60;;;16.00;96.50;;;;;;5034517;28;20206;-56
2022/03/15 11:36:25;;;;;;;4.87;2.67;;;15.90;97.00;;;;;;5032789;28;20714;-55
2022/03/15 11:38:53;;;;;;;4.65;2.60;;;15.60;96.50;;;;;;5033486;28;20457;-56
2022/03/15 11:41:20;;;;;;;4.67;2.83;;;15.30;96.90;;;;;;5030445;28;20357;-60
2022/03/15 11:44:00;;;;;;;6.33;2.77;;;15.10;97.60;;;;;;5034441;28;20206;-59
2022/03/15 11:46:35;;;;;;;5.13;2.93;;;15.10;98.30;;;;;;5034140;28;20316;-59
2022/03/15 11:49:11;;;;;;;6.27;2.80;;;14.90;97.90;;;;;;5034053;28;20293;-65
2022/03/15 11:51:48;;;;;;;5.77;3.20;;;14.60;98.30;;;;;;5033721;28;20209;-56
2022/03/15 11:54:23;;;;;;;5.83;3.87;;;14.30;98.90;;;;;;5033661;28;20210;-57
2022/03/15 11:56:54;;;;;;;6.07;2.60;;;14.10;99.40;;;;;;5034035;28;20260;-57
2022/03/15 11:59:21;;;;;;;5.10;2.90;;;14.00;99.30;;;;;;5034030;28;20218;-57
2022/03/15 12:01:51;;;;;;;3.57;2.73;;;14.00;99.90;;;;;;5033469;28;20222;-57
2022/03/15 12:04:24;;;;;;;4.97;3.03;;;14.00;99.90;;;;;;5033690;28;20298;-56
2022/03/15 12:06:54;;;;;;;4.50;3.13;;;14.00;99.90;;;;;;5033112;28;20234;-56
2022/03/15 12:09:22;;;;;;;4.93;3.37;;;14.00;99.90;;;;;;5033658;28;20575;-56
2022/03/15 12:12:00;;;;;;;5.83;3.50;;;14.00;99.90;;;;;;5033255;28;20234;-56
2022/03/15 12:14:37;;;;;;;7.40;4.10;;;14.10;99.90;;;;;;5033907;28;20627;-57
2022/03/15 12:17:06;;;;;;;7.23;3.90;;;14.00;99.90;;;;;;5033544;28;20729;-57
2022/03/15 12:19:41;;;;;;;4.77;3.40;;;14.10;99.90;;;;;;5033100;28;20695;-56
2022/03/15 12:22:10;;;;;;;6.13;3.87;;;14.20;99.90;;;;;;5033494;28;20225;-56
2022/03/15 12:24:38;;;;;;;8.90;3.30;;;14.30;99.90;;;;;;5033255;28;20560;-56
2022/03/15 12:27:06;;;;;;;6.13;3.93;;;14.20;99.90;;;;;;5032937;28;20233;-57
2022/03/15 12:29:33;;;;;;;8.07;3.80;;;14.00;99.90;;;;;;5033439;28;20206;-57
2022/03/15 12:32:13;;;;;;;5.60;3.50;;;13.80;99.90;;;;;;5032412;28;20682;-59
2022/03/15 12:34:43;;;;;;;5.90;3.23;;;13.60;99.90;;;;;;5032906;28;20741;-59
2022/03/15 12:37:10;;;;;;;5.90;3.43;;;13.40;99.90;;;;;;5032642;28;20329;-59
2022/03/15 12:39:36;;;;;;;6.57;3.40;;;13.20;99.90;;;;;;5032667;28;20202;-59
2022/03/15 12:42:07;;;;;;;7.53;3.97;;;13.10;99.90;;;;;;5032442;28;20258;-59
2022/03/15 12:44:43;;;;;;;4.23;3.33;;;12.90;99.90;;;;;;5025098;28;20639;-60
2022/03/15 12:47:14;;;;;;;6.07;3.57;;;12.90;99.90;;;;;;5025454;28;20232;-61
2022/03/15 12:49:41;;;;;;;7.80;3.83;;;12.80;99.90;;;;;;5032399;28;20233;-60
2022/03/15 12:52:12;;;;;;;6.37;3.73;;;12.80;99.90;;;;;;5032299;28;20206;-60
2022/03/15 12:54:40;;;;;;;7.57;3.63;;;12.90;99.90;;;;;;5032694;28;20324;-60
2022/03/15 12:57:12;;;;;;;5.87;4.10;;;13.00;99.90;;;;;;5032449;28;20230;-59